createdAt,value
2019-04-23T00:02:44.651Z,51.00
2019-04-23T00:06:57.458Z,53.20
2019-04-23T00:11:05.848Z,51.10
2019-04-23T00:15:07.576Z,51.50
2019-04-23T00:19:15.220Z,50.90
2019-04-23T00:23:16.435Z,54.20
2019-04-23T00:27:35.805Z,56.60
2019-04-23T00:31:40.882Z,53.40
2019-04-23T00:35:43.402Z,51.50
2019-04-23T00:48:02.020Z,55.80
2019-04-23T00:52:14.497Z,60.70
2019-04-23T01:04:42.128Z,70.90
2019-04-23T01:08:45.292Z,64.40
2019-04-23T01:12:51.652Z,66.30
2019-04-23T01:17:02.799Z,72.10
2019-04-23T01:20:54.274Z,71.60
2019-04-23T01:25:37.719Z,75.10
2019-04-23T01:30:08.399Z,73.60
2019-04-23T01:34:11.028Z,72.70
2019-04-23T01:38:11.590Z,66.90
2019-04-23T01:42:29.010Z,72.10
2019-04-23T01:46:28.705Z,75.40
2019-04-23T01:50:37.383Z,73.90
2019-04-23T01:54:48.399Z,75.80
2019-04-23T01:59:05.156Z,76.60
2019-04-23T02:03:04.353Z,68.60
2019-04-23T02:07:06.391Z,64.30
2019-04-23T02:11:29.847Z,71.00
2019-04-23T02:15:26.406Z,73.40
2019-04-23T02:19:33.333Z,76.40
2019-04-23T02:23:50.762Z,72.40
2019-04-23T02:32:09.319Z,75.10
2019-04-23T02:48:49.912Z,79.80
2019-04-23T02:52:48.990Z,74.50
2019-04-23T02:56:51.079Z,78.90
2019-04-23T03:09:23.659Z,80.10
2019-04-23T03:18:06.718Z,77.60
2019-04-23T03:32:30.184Z,79.20
2019-04-23T03:43:06.780Z,78.80
2019-04-23T03:47:20.682Z,79.50
2019-04-23T03:55:45.454Z,81.40
2019-04-23T04:08:07.971Z,77.00
2019-04-23T04:12:03.772Z,72.20
2019-04-23T04:20:29.042Z,66.90
2019-04-23T04:24:27.679Z,72.60
2019-04-23T04:28:44.507Z,75.20
2019-04-23T04:32:46.940Z,74.70
2019-04-23T04:53:38.364Z,78.10
2019-04-23T04:57:37.219Z,72.60
2019-04-23T05:01:28.852Z,73.00
2019-04-23T05:10:05.870Z,69.40
2019-04-23T05:14:00.039Z,73.20
2019-04-23T05:18:34.160Z,75.70
2019-04-23T05:22:33.696Z,77.50
2019-04-23T05:26:27.041Z,77.90
2019-04-23T05:30:44.627Z,75.10
2019-04-23T05:34:50.458Z,77.90
2019-04-23T05:39:02.043Z,75.50
2019-04-23T05:47:19.132Z,73.90
2019-04-23T05:51:17.962Z,73.70
2019-04-23T05:55:19.039Z,72.80
2019-04-23T05:59:30.018Z,74.20
2019-04-23T06:03:41.950Z,71.50
2019-04-23T06:07:47.426Z,71.20
2019-04-23T06:11:57.204Z,72.20
2019-04-23T06:16:05.047Z,73.20
2019-04-23T06:20:09.411Z,72.80
2019-04-23T06:24:24.933Z,70.40
2019-04-23T06:28:46.797Z,70.80
2019-04-23T06:32:32.961Z,71.80
2019-04-23T06:36:37.103Z,71.20
2019-04-23T06:40:47.384Z,72.10
2019-04-23T06:44:56.119Z,71.60
2019-04-23T06:49:02.121Z,70.20
2019-04-23T06:53:04.565Z,69.10
2019-04-23T06:57:17.875Z,69.20
2019-04-23T07:01:22.234Z,69.80
2019-04-23T07:06:05.018Z,68.00
2019-04-23T07:09:57.895Z,68.90
2019-04-23T07:13:58.822Z,68.90
2019-04-23T07:18:07.559Z,69.10
2019-04-23T07:30:33.314Z,68.20
2019-04-23T07:34:52.651Z,68.40
2019-04-23T07:43:23.510Z,68.40
2019-04-23T07:48:01.550Z,67.90
2019-04-23T07:52:05.669Z,66.80
2019-04-23T07:56:11.592Z,67.20
2019-04-23T08:00:18.326Z,67.40
2019-04-23T08:04:29.308Z,66.70
2019-04-23T08:08:26.947Z,67.90
2019-04-23T08:12:42.454Z,67.20
2019-04-23T08:16:45.049Z,66.40
2019-04-23T08:25:29.213Z,66.10
2019-04-23T08:29:28.001Z,66.80
2019-04-23T08:33:42.182Z,65.50
2019-04-23T08:42:09.538Z,67.10
2019-04-23T08:46:15.189Z,68.60
2019-04-23T08:50:21.653Z,68.90
2019-04-23T08:54:45.245Z,69.40
2019-04-23T09:02:45.241Z,72.90
2019-04-23T09:06:55.945Z,70.50
2019-04-23T09:15:11.406Z,74.10
2019-04-23T09:19:16.657Z,77.60
2019-04-23T09:23:18.572Z,75.20
2019-04-23T09:27:31.805Z,76.80
2019-04-23T09:36:53.636Z,74.90
2019-04-23T09:45:46.685Z,70.40
2019-04-23T09:49:44.265Z,70.70
2019-04-23T09:54:00.676Z,69.40
2019-04-23T09:58:03.992Z,70.70
2019-04-23T10:01:57.747Z,69.30
2019-04-23T10:05:53.447Z,69.70
2019-04-23T10:09:52.077Z,69.60
2019-04-23T10:13:58.940Z,69.30
2019-04-23T10:18:04.694Z,69.10
2019-04-23T10:22:11.423Z,69.60
2019-04-23T10:26:17.095Z,72.50
2019-04-23T10:30:23.844Z,70.10
2019-04-23T10:34:42.257Z,71.00
2019-04-23T10:38:42.668Z,72.30
2019-04-23T10:42:47.935Z,74.80
2019-04-23T10:48:05.415Z,77.60
2019-04-23T10:52:28.093Z,81.90
2019-04-23T10:56:23.389Z,81.30
2019-04-23T11:00:16.159Z,81.70
2019-04-23T11:04:38.382Z,87.70
2019-04-23T11:13:08.386Z,86.90
2019-04-23T11:17:07.958Z,90.60
2019-04-23T11:25:32.512Z,88.00
2019-04-23T11:29:34.356Z,90.90
2019-04-23T11:33:37.861Z,90.80
2019-04-23T11:41:58.058Z,91.10
2019-04-23T11:51:07.447Z,91.60
2019-04-23T11:58:20.212Z,92.10
2019-04-23T12:02:38.882Z,91.60
2019-04-23T12:06:55.913Z,91.60
2019-04-23T12:11:35.420Z,90.40
2019-04-23T12:15:18.389Z,89.30
2019-04-23T12:19:44.306Z,91.10
2019-04-23T12:23:42.032Z,90.10
2019-04-23T12:27:31.711Z,91.10
2019-04-23T12:31:47.014Z,91.50
2019-04-23T12:35:50.061Z,91.70
2019-04-23T12:44:30.640Z,91.50
2019-04-23T12:52:35.989Z,92.60
2019-04-23T12:56:48.441Z,92.60
2019-04-23T13:00:37.246Z,92.50
2019-04-23T13:04:51.714Z,93.50
2019-04-23T13:09:01.466Z,91.30
2019-04-23T13:17:34.873Z,93.50
2019-04-23T13:21:48.153Z,93.40
2019-04-23T13:25:49.647Z,93.00
2019-04-23T13:29:56.782Z,93.80
2019-04-23T13:33:57.647Z,93.40
2019-04-23T13:38:16.022Z,92.90
2019-04-23T13:42:23.155Z,92.50
2019-04-23T13:46:23.067Z,92.90
2019-04-23T13:54:59.745Z,93.10
2019-04-23T14:02:57.950Z,93.50
2019-04-23T14:11:10.744Z,92.00
2019-04-23T14:15:44.965Z,92.70
2019-04-23T14:19:23.252Z,94.30
2019-04-23T14:27:51.374Z,93.70
2019-04-23T14:32:00.890Z,94.00
2019-04-23T14:36:03.223Z,95.50
2019-04-23T14:40:22.292Z,95.20
2019-04-23T14:44:18.996Z,95.50
2019-04-23T14:48:29.867Z,95.10
2019-04-23T14:52:56.998Z,94.60
2019-04-23T14:57:03.914Z,93.80
2019-04-23T15:01:16.144Z,94.40
2019-04-23T15:05:15.492Z,95.60
2019-04-23T15:09:24.278Z,95.60
2019-04-23T15:13:23.143Z,94.60
2019-04-23T15:17:28.910Z,94.30
2019-04-23T15:26:15.231Z,93.60
2019-04-23T15:29:45.899Z,93.20
2019-04-23T15:34:09.205Z,94.10
2019-04-23T15:38:29.602Z,93.70
2019-04-23T15:42:23.082Z,93.70
2019-04-23T15:46:28.440Z,92.50
2019-04-23T15:54:43.332Z,94.20
2019-04-23T15:59:03.992Z,94.40
2019-04-23T16:02:30.921Z,93.30
2019-04-23T16:06:43.528Z,93.10
2019-04-23T16:11:36.441Z,93.40
2019-04-23T16:15:27.071Z,92.60
2019-04-23T16:19:52.900Z,93.10
2019-04-23T16:24:01.461Z,93.60
2019-04-23T16:28:12.852Z,93.50
2019-04-23T16:32:20.864Z,92.00
2019-04-23T16:36:23.160Z,92.80
2019-04-23T16:40:33.076Z,93.60
2019-04-23T16:44:46.073Z,93.10
2019-04-23T16:53:02.980Z,93.10
2019-04-23T17:05:21.645Z,92.90
2019-04-23T17:09:26.429Z,91.80
2019-04-23T17:13:34.638Z,90.60
2019-04-23T17:17:35.763Z,92.40
2019-04-23T17:21:44.397Z,90.30
2019-04-23T17:25:59.204Z,91.80
2019-04-23T17:30:09.354Z,88.80
2019-04-23T17:34:18.265Z,91.40
2019-04-23T17:38:23.270Z,91.30
2019-04-23T17:42:27.285Z,91.40
2019-04-23T17:46:34.168Z,91.70
2019-04-23T17:55:09.278Z,91.80
2019-04-23T18:03:30.447Z,91.60
2019-04-23T18:07:36.203Z,91.90
2019-04-23T18:11:44.597Z,90.30
2019-04-23T18:15:49.006Z,90.80
2019-04-23T18:20:12.929Z,88.80
2019-04-23T18:24:27.389Z,90.80
2019-04-23T18:28:30.169Z,90.20
2019-04-23T18:37:17.929Z,91.60
2019-04-23T18:41:10.607Z,91.70
2019-04-23T18:45:41.599Z,91.50
2019-04-23T18:49:42.959Z,89.10
2019-04-23T18:53:48.652Z,91.40
2019-04-23T18:57:50.412Z,91.20
2019-04-23T19:02:35.487Z,91.40
2019-04-23T19:06:38.320Z,89.50
2019-04-23T19:11:23.327Z,90.60
2019-04-23T19:19:42.254Z,88.60
2019-04-23T19:31:58.345Z,92.30
2019-04-23T19:40:26.247Z,92.40
2019-04-23T19:44:24.579Z,89.80
2019-04-23T19:48:44.106Z,89.70
2019-04-23T19:53:03.610Z,90.60
2019-04-23T19:57:07.228Z,91.70
2019-04-23T20:01:10.304Z,84.70
2019-04-23T20:05:07.214Z,90.40
2019-04-23T20:09:28.713Z,88.20
2019-04-23T20:13:30.776Z,91.30
2019-04-23T20:21:42.716Z,90.30
2019-04-23T20:26:12.501Z,92.20
2019-04-23T20:38:33.557Z,90.20
2019-04-23T20:42:37.362Z,90.20
2019-04-23T20:46:54.258Z,90.20
2019-04-23T20:50:54.054Z,90.20
2019-04-23T20:59:03.505Z,79.20
2019-04-23T21:07:47.079Z,88.60
2019-04-23T21:11:40.431Z,90.40
2019-04-23T21:15:45.713Z,90.00
2019-04-23T21:19:59.487Z,90.30
2019-04-23T21:23:57.100Z,91.10
2019-04-23T21:32:24.889Z,85.00
2019-04-23T21:36:38.801Z,91.10
2019-04-23T21:45:09.063Z,83.60
2019-04-23T21:53:25.980Z,90.50
2019-04-23T21:57:42.062Z,89.00
2019-04-23T22:05:58.652Z,84.50
2019-04-23T22:10:00.512Z,89.30
2019-04-23T22:18:10.401Z,85.90
2019-04-23T22:22:18.358Z,85.70
2019-04-23T22:26:33.520Z,85.90
2019-04-23T22:30:37.127Z,83.50
2019-04-23T22:34:54.228Z,86.80
2019-04-23T22:38:49.186Z,87.50
2019-04-23T22:43:09.100Z,85.60
2019-04-23T22:47:08.846Z,87.50
2019-04-23T22:55:27.634Z,80.20
2019-04-23T23:03:44.144Z,89.30
2019-04-23T23:08:01.521Z,88.60
2019-04-23T23:12:04.365Z,88.60
2019-04-23T23:20:23.934Z,89.30
2019-04-23T23:24:21.515Z,86.50
2019-04-23T23:28:30.728Z,88.50
2019-04-23T23:32:41.002Z,88.40
2019-04-23T23:36:47.851Z,88.80
2019-04-23T23:40:59.037Z,88.20
2019-04-23T23:45:02.149Z,87.40
2019-04-23T23:49:03.192Z,87.50
2019-04-23T23:57:18.347Z,88.80
